createdAt,value
2018-11-21T00:00:24.887Z,23.37
2018-11-21T00:02:50.474Z,20.47
2018-11-21T00:05:15.680Z,20.97
2018-11-21T00:07:40.760Z,22.27
2018-11-21T00:10:08.395Z,22.23
2018-11-21T00:12:33.498Z,20.23
2018-11-21T00:14:58.593Z,23.53
2018-11-21T00:17:23.760Z,22.73
2018-11-21T00:19:48.824Z,24.50
2018-11-21T00:22:13.897Z,21.90
2018-11-21T00:24:58.137Z,22.33
2018-11-21T00:27:23.257Z,22.03
2018-11-21T00:29:48.376Z,22.23
2018-11-21T00:32:32.143Z,21.90
2018-11-21T00:34:57.270Z,23.73
2018-11-21T00:37:23.110Z,20.43
2018-11-21T00:39:48.201Z,22.17
2018-11-21T00:42:32.273Z,23.13
2018-11-21T00:44:57.355Z,23.67
2018-11-21T00:47:22.465Z,25.60
2018-11-21T00:49:47.538Z,25.57
2018-11-21T00:52:12.668Z,22.47
2018-11-21T00:54:56.699Z,24.80
2018-11-21T01:00:17.650Z,22.97
2018-11-21T01:02:42.763Z,24.23
2018-11-21T01:05:08.532Z,23.83
2018-11-21T01:07:33.621Z,24.30
2018-11-21T01:09:58.684Z,23.03
2018-11-21T01:12:42.742Z,24.63
2018-11-21T01:15:08.010Z,25.20
2018-11-21T01:17:33.099Z,26.37
2018-11-21T01:20:17.254Z,25.27
2018-11-21T01:22:42.354Z,29.40
2018-11-21T01:25:08.088Z,26.40
2018-11-21T01:30:24.915Z,26.00
2018-11-21T01:32:49.991Z,25.27
2018-11-21T01:35:15.105Z,26.17
2018-11-21T01:37:40.191Z,25.80
2018-11-21T01:40:05.365Z,25.30
2018-11-21T01:42:30.536Z,24.10
2018-11-21T01:44:55.619Z,28.30
2018-11-21T01:47:39.681Z,28.87
2018-11-21T01:50:04.705Z,24.80
2018-11-21T01:52:29.767Z,25.00
2018-11-21T01:54:54.841Z,26.20
2018-11-21T01:57:38.863Z,26.70
2018-11-21T02:00:04.118Z,28.63
2018-11-21T02:02:29.360Z,27.23
2018-11-21T02:04:54.443Z,26.33
2018-11-21T02:07:19.521Z,27.87
2018-11-21T02:09:44.608Z,27.77
2018-11-21T02:12:09.700Z,24.77
2018-11-21T02:14:34.778Z,27.23
2018-11-21T02:17:18.847Z,27.37
2018-11-21T02:19:43.984Z,26.60
2018-11-21T02:22:09.135Z,28.07
2018-11-21T02:24:34.325Z,27.23
2018-11-21T02:26:59.402Z,27.23
2018-11-21T02:29:24.463Z,26.50
2018-11-21T02:31:49.548Z,26.83
2018-11-21T02:34:14.614Z,24.17
2018-11-21T02:36:51.914Z,27.23
2018-11-21T02:39:17.032Z,28.43
2018-11-21T02:41:42.111Z,28.30
2018-11-21T02:44:07.489Z,28.20
2018-11-21T02:46:51.526Z,28.17
2018-11-21T02:51:53.368Z,29.37
2018-11-21T02:54:18.443Z,29.20
2018-11-21T02:57:40.188Z,27.97
2018-11-21T03:00:34.414Z,27.07
2018-11-21T03:02:59.552Z,28.10
2018-11-21T03:05:24.654Z,28.63
2018-11-21T03:07:50.462Z,31.23
2018-11-21T03:10:34.565Z,29.33
2018-11-21T03:12:59.652Z,30.83
2018-11-21T03:15:24.734Z,29.93
2018-11-21T03:17:49.776Z,31.63
2018-11-21T03:20:14.909Z,30.93
2018-11-21T03:22:40.082Z,34.90
2018-11-21T03:25:05.201Z,27.73
2018-11-21T03:27:30.300Z,35.03
2018-11-21T03:29:55.397Z,31.63
2018-11-21T03:32:20.518Z,32.40
2018-11-21T03:34:45.682Z,34.20
2018-11-21T03:39:47.011Z,30.23
2018-11-21T03:42:12.064Z,29.47
2018-11-21T03:44:37.186Z,34.33
2018-11-21T03:47:13.850Z,31.77
2018-11-21T03:49:57.922Z,33.87
2018-11-21T03:52:23.034Z,31.93
2018-11-21T03:54:48.141Z,31.47
2018-11-21T03:57:25.298Z,31.47
2018-11-21T03:59:50.364Z,32.37
2018-11-21T04:02:15.448Z,34.17
2018-11-21T04:04:40.649Z,31.53
2018-11-21T04:07:05.754Z,31.47
2018-11-21T04:09:49.777Z,31.60
2018-11-21T04:12:14.886Z,31.57
2018-11-21T04:14:59.064Z,28.93
2018-11-21T04:17:24.181Z,31.67
2018-11-21T04:19:49.226Z,31.30
2018-11-21T04:22:33.248Z,30.53
2018-11-21T04:24:58.299Z,27.17
2018-11-21T04:27:42.503Z,30.63
2018-11-21T04:32:45.296Z,30.67
2018-11-21T04:35:10.644Z,30.77
2018-11-21T04:37:35.703Z,29.37
2018-11-21T04:40:00.812Z,30.80
2018-11-21T04:42:25.891Z,29.60
2018-11-21T04:44:51.026Z,31.10
2018-11-21T04:47:16.133Z,28.33
2018-11-21T04:49:41.203Z,29.67
2018-11-21T04:52:06.277Z,30.30
2018-11-21T04:54:31.421Z,31.33
2018-11-21T04:56:56.510Z,30.37
2018-11-21T04:59:21.609Z,29.33
2018-11-21T05:01:46.809Z,28.23
2018-11-21T05:04:11.907Z,28.07
2018-11-21T05:06:37.089Z,29.50
2018-11-21T05:09:02.340Z,28.80
2018-11-21T05:11:27.441Z,26.90
2018-11-21T05:13:52.543Z,28.83
2018-11-21T05:16:17.655Z,30.60
2018-11-21T05:18:42.757Z,30.03
2018-11-21T05:21:07.892Z,30.00
2018-11-21T05:23:51.905Z,33.60
2018-11-21T05:26:17.003Z,29.97
2018-11-21T05:28:42.088Z,29.27
2018-11-21T05:31:07.563Z,29.93
2018-11-21T05:33:32.631Z,31.57
2018-11-21T05:38:34.400Z,29.80
2018-11-21T05:40:59.484Z,27.37
2018-11-21T05:43:24.540Z,28.77
2018-11-21T05:45:49.684Z,29.03
2018-11-21T05:48:14.775Z,26.33
2018-11-21T05:50:39.908Z,29.37
2018-11-21T05:53:04.953Z,27.23
2018-11-21T05:55:30.015Z,29.03
2018-11-21T05:57:55.125Z,28.93
2018-11-21T06:00:20.203Z,31.70
2018-11-21T06:02:45.306Z,26.83
2018-11-21T06:05:11.425Z,28.30
2018-11-21T06:07:36.555Z,29.37
2018-11-21T06:10:01.653Z,29.00
2018-11-21T06:12:34.086Z,25.77
2018-11-21T06:14:59.190Z,29.93
2018-11-21T06:17:24.445Z,28.70
2018-11-21T06:19:49.546Z,29.57
2018-11-21T06:22:14.646Z,28.73
2018-11-21T06:24:39.748Z,29.73
2018-11-21T06:27:04.949Z,31.70
2018-11-21T06:29:30.098Z,28.50
2018-11-21T06:31:55.224Z,30.73
2018-11-21T06:34:20.335Z,34.07
2018-11-21T06:36:45.464Z,33.20
2018-11-21T06:39:10.637Z,29.63
2018-11-21T06:41:54.693Z,24.70
2018-11-21T06:44:38.813Z,29.40
2018-11-21T06:47:03.947Z,30.53
2018-11-21T06:49:29.063Z,29.20
2018-11-21T06:51:54.168Z,28.90
2018-11-21T06:54:38.192Z,29.40
2018-11-21T06:57:22.279Z,30.03
2018-11-21T06:59:47.354Z,30.93
2018-11-21T07:02:12.463Z,29.40
2018-11-21T07:04:37.562Z,31.20
2018-11-21T07:07:02.667Z,32.23
2018-11-21T07:09:27.742Z,31.57
2018-11-21T07:11:52.844Z,30.60
2018-11-21T07:16:57.027Z,31.33
2018-11-21T07:19:41.070Z,31.73
2018-11-21T07:22:17.806Z,31.23
2018-11-21T07:24:42.886Z,28.63
2018-11-21T07:27:26.918Z,30.97
2018-11-21T07:29:52.035Z,34.60
2018-11-21T07:32:17.184Z,31.07
2018-11-21T07:35:01.218Z,32.77
2018-11-21T07:37:26.492Z,32.20
2018-11-21T07:39:51.569Z,29.00
2018-11-21T07:42:16.706Z,28.20
2018-11-21T07:44:41.841Z,32.23
2018-11-21T07:47:06.908Z,30.33
2018-11-21T07:49:32.033Z,28.67
2018-11-21T07:51:57.157Z,32.07
2018-11-21T07:54:22.219Z,34.97
2018-11-21T07:57:25.276Z,32.90
2018-11-21T08:00:28.356Z,32.27
2018-11-21T08:02:53.430Z,32.17
2018-11-21T08:05:26.171Z,30.93
2018-11-21T08:08:09.940Z,34.17
2018-11-21T08:10:53.723Z,34.03
2018-11-21T08:13:37.504Z,30.37
2018-11-21T08:16:40.269Z,31.80
2018-11-21T08:19:15.786Z,34.73
2018-11-21T08:24:35.462Z,30.60
2018-11-21T08:27:19.221Z,29.40
2018-11-21T08:30:03.257Z,34.20
2018-11-21T08:32:28.331Z,34.13
2018-11-21T08:34:53.461Z,33.33
2018-11-21T08:37:18.543Z,31.77
2018-11-21T08:39:43.611Z,31.20
2018-11-21T08:42:08.673Z,37.03
2018-11-21T08:44:52.684Z,32.80
2018-11-21T08:47:17.807Z,30.93
2018-11-21T08:49:42.889Z,32.60
2018-11-21T08:52:07.983Z,34.30
2018-11-21T08:54:33.081Z,33.00
2018-11-21T08:56:58.183Z,35.03
2018-11-21T08:59:23.238Z,32.80
2018-11-21T09:01:48.274Z,33.10
2018-11-21T09:04:13.405Z,31.67
2018-11-21T09:06:38.479Z,31.30
2018-11-21T09:09:03.589Z,34.60
2018-11-21T09:11:30.849Z,34.03
2018-11-21T09:13:55.916Z,33.53
2018-11-21T09:16:20.968Z,30.60
2018-11-21T09:18:46.021Z,29.53
2018-11-21T09:21:11.116Z,31.23
2018-11-21T09:23:55.112Z,31.47
2018-11-21T09:26:39.178Z,29.13
2018-11-21T09:29:04.249Z,28.97
2018-11-21T09:31:29.316Z,30.27
2018-11-21T09:33:54.380Z,29.40
2018-11-21T09:36:19.458Z,31.97
2018-11-21T09:38:44.573Z,31.57
2018-11-21T09:41:09.682Z,32.17
2018-11-21T09:46:11.525Z,30.87
2018-11-21T09:48:36.640Z,30.53
2018-11-21T09:51:01.693Z,33.93
2018-11-21T09:53:26.753Z,32.73
2018-11-21T09:55:51.829Z,29.37
2018-11-21T09:58:16.938Z,33.47
2018-11-21T10:01:20.010Z,30.00
2018-11-21T10:03:45.079Z,31.17
2018-11-21T10:06:30.395Z,30.83
2018-11-21T10:09:09.486Z,28.27
2018-11-21T10:11:53.539Z,30.47
2018-11-21T10:14:18.631Z,30.17
2018-11-21T10:16:43.696Z,29.67
2018-11-21T10:19:08.836Z,29.97
2018-11-21T10:21:35.119Z,29.77
2018-11-21T10:24:00.234Z,33.20
2018-11-21T10:26:25.353Z,31.37
2018-11-21T10:28:51.327Z,33.03
2018-11-21T10:31:16.444Z,29.80
2018-11-21T10:33:41.493Z,28.93
2018-11-21T10:36:06.768Z,32.97
2018-11-21T10:38:31.810Z,30.90
2018-11-21T10:40:56.914Z,31.13
2018-11-21T10:43:21.992Z,30.87
2018-11-21T10:45:47.134Z,31.27
2018-11-21T10:48:12.226Z,30.73
2018-11-21T10:50:37.351Z,30.20
2018-11-21T10:53:02.518Z,32.70
2018-11-21T10:55:27.634Z,30.50
2018-11-21T10:57:52.707Z,31.40
2018-11-21T11:00:36.493Z,31.53
2018-11-21T11:05:56.686Z,31.00
2018-11-21T11:08:40.478Z,29.87
2018-11-21T11:11:24.581Z,28.73
2018-11-21T11:14:27.375Z,33.73
2018-11-21T11:17:11.141Z,31.17
2018-11-21T11:19:45.583Z,34.40
2018-11-21T11:22:20.383Z,28.90
2018-11-21T11:25:04.238Z,30.13
2018-11-21T11:27:48.012Z,31.07
2018-11-21T11:30:31.932Z,30.00
2018-11-21T11:33:15.642Z,31.83
2018-11-21T11:35:59.438Z,30.63
2018-11-21T11:38:43.211Z,30.80
2018-11-21T11:41:27.036Z,28.03
2018-11-21T11:44:10.810Z,27.90
2018-11-21T11:46:54.668Z,31.70
2018-11-21T11:49:38.468Z,32.57
2018-11-21T11:52:22.264Z,28.83
2018-11-21T11:55:06.094Z,31.87
2018-11-21T11:57:49.888Z,30.40
2018-11-21T12:00:33.716Z,31.70
2018-11-21T12:03:36.482Z,31.70
2018-11-21T12:06:20.250Z,31.30
2018-11-21T12:09:23.026Z,32.80
2018-11-21T12:12:06.849Z,30.73
2018-11-21T12:14:50.620Z,33.20
2018-11-21T12:17:34.404Z,29.70
2018-11-21T12:20:18.219Z,32.47
2018-11-21T12:23:01.971Z,33.43
2018-11-21T12:25:45.768Z,32.90
2018-11-21T12:28:48.526Z,30.13
2018-11-21T12:31:32.376Z,30.57
2018-11-21T12:34:16.176Z,31.27
2018-11-21T12:37:00.001Z,30.50
2018-11-21T12:39:43.821Z,33.50
2018-11-21T12:42:27.651Z,30.90
2018-11-21T12:45:11.425Z,33.13
2018-11-21T12:51:13.419Z,32.23
2018-11-21T12:53:57.232Z,31.33
2018-11-21T12:56:41.071Z,30.93
2018-11-21T12:59:25.102Z,31.57
2018-11-21T13:02:27.887Z,29.77
2018-11-21T13:05:10.685Z,31.60
2018-11-21T13:07:54.510Z,31.50
2018-11-21T13:10:38.288Z,31.30
2018-11-21T13:25:07.642Z,33.80
2018-11-21T13:27:51.432Z,32.40
2018-11-21T13:30:54.185Z,31.63
2018-11-21T13:33:37.986Z,32.63
2018-11-21T13:36:21.893Z,35.23
2018-11-21T13:39:05.715Z,33.17
2018-11-21T13:45:07.302Z,32.07
2018-11-21T13:50:46.699Z,33.10
2018-11-21T13:53:30.495Z,33.27
2018-11-21T13:55:55.578Z,34.50
2018-11-21T14:00:56.680Z,30.87
2018-11-21T14:03:21.774Z,33.00
2018-11-21T14:05:46.877Z,30.40
2018-11-21T14:08:11.992Z,33.10
2018-11-21T14:10:37.080Z,31.83
2018-11-21T14:13:02.172Z,31.53
2018-11-21T14:15:27.355Z,32.70
2018-11-21T14:17:52.415Z,33.23
2018-11-21T14:20:17.480Z,35.93
2018-11-21T14:22:42.602Z,32.13
2018-11-21T14:25:09.617Z,32.43
2018-11-21T14:27:34.686Z,33.20
2018-11-21T14:29:59.771Z,35.63
2018-11-21T14:32:24.876Z,33.87
2018-11-21T14:34:49.973Z,32.57
2018-11-21T14:37:34.098Z,35.40
2018-11-21T14:39:59.245Z,31.87
2018-11-21T14:42:24.409Z,36.10
2018-11-21T14:44:49.486Z,38.17
2018-11-21T14:47:16.321Z,33.57
2018-11-21T14:49:41.431Z,35.67
2018-11-21T14:54:50.689Z,34.27
2018-11-21T14:57:34.785Z,32.87
2018-11-21T14:59:59.899Z,31.83
2018-11-21T15:02:25.027Z,34.27
2018-11-21T15:04:50.118Z,33.23
2018-11-21T15:09:51.323Z,39.17
2018-11-21T15:12:16.438Z,34.57
2018-11-21T15:14:41.527Z,30.50
2018-11-21T15:17:06.705Z,35.00
2018-11-21T15:19:31.825Z,31.27
2018-11-21T15:21:57.242Z,33.93
2018-11-21T15:24:22.343Z,32.83
2018-11-21T15:26:47.468Z,32.83
2018-11-21T15:29:12.832Z,31.37
2018-11-21T15:31:37.926Z,33.30
2018-11-21T15:34:02.979Z,34.60
2018-11-21T15:36:47.047Z,30.57
2018-11-21T15:39:31.110Z,31.13
2018-11-21T15:41:56.272Z,32.77
2018-11-21T15:44:21.364Z,32.27
2018-11-21T15:46:46.436Z,35.97
2018-11-21T15:49:11.546Z,33.93
2018-11-21T15:51:36.700Z,33.53
2018-11-21T15:54:02.036Z,30.97
2018-11-21T15:56:27.121Z,33.10
2018-11-21T15:58:52.231Z,33.80
2018-11-21T16:01:17.400Z,37.17
2018-11-21T16:03:42.529Z,35.37
2018-11-21T16:06:07.648Z,32.37
2018-11-21T16:08:32.762Z,34.03
2018-11-21T16:10:57.924Z,34.87
2018-11-21T16:13:23.050Z,32.03
2018-11-21T16:16:07.902Z,33.00
2018-11-21T16:18:33.036Z,30.80
2018-11-21T16:20:58.137Z,35.20
2018-11-21T16:23:23.300Z,34.47
2018-11-21T16:25:48.431Z,35.60
2018-11-21T16:28:13.555Z,34.00
2018-11-21T16:30:38.687Z,34.10
2018-11-21T16:33:03.812Z,34.30
2018-11-21T16:35:28.931Z,33.00
2018-11-21T16:37:54.208Z,35.27
2018-11-21T16:40:21.118Z,34.97
2018-11-21T16:42:46.409Z,39.40
2018-11-21T16:45:30.569Z,37.97
2018-11-21T16:47:55.745Z,34.97
2018-11-21T16:50:21.255Z,33.77
2018-11-21T16:52:46.419Z,34.13
2018-11-21T16:55:13.225Z,34.93
2018-11-21T16:57:57.978Z,33.87
2018-11-21T17:00:24.748Z,37.97
2018-11-21T17:02:49.850Z,38.47
2018-11-21T17:05:16.366Z,38.70
2018-11-21T17:07:42.056Z,34.43
2018-11-21T17:10:29.654Z,34.13
2018-11-21T17:12:54.862Z,37.60
2018-11-21T17:15:21.734Z,38.00
2018-11-21T17:17:47.172Z,34.03
2018-11-21T17:20:18.061Z,36.63
2018-11-21T17:22:43.429Z,37.53
2018-11-21T17:25:12.419Z,37.10
2018-11-21T17:27:37.572Z,34.03
2018-11-21T17:30:02.747Z,35.37
2018-11-21T17:32:27.848Z,35.70
2018-11-21T17:34:52.970Z,37.13
2018-11-21T17:37:18.085Z,37.33
2018-11-21T17:39:43.384Z,39.17
2018-11-21T17:42:08.440Z,36.43
2018-11-21T17:44:33.597Z,40.17
2018-11-21T17:46:58.693Z,42.63
2018-11-21T17:49:23.809Z,38.20
2018-11-21T17:51:48.920Z,37.27
2018-11-21T17:54:14.009Z,39.87
2018-11-21T17:56:39.169Z,41.70
2018-11-21T17:59:04.355Z,39.13
2018-11-21T18:01:29.466Z,37.43
2018-11-21T18:03:54.585Z,38.17
2018-11-21T18:06:19.781Z,44.97
2018-11-21T18:08:44.891Z,39.53
2018-11-21T18:11:10.078Z,41.40
2018-11-21T18:13:35.199Z,38.20
2018-11-21T18:16:00.375Z,37.83
2018-11-21T18:18:26.227Z,38.60
2018-11-21T18:20:51.348Z,39.07
2018-11-21T18:23:16.509Z,38.53
2018-11-21T18:25:43.818Z,42.50
2018-11-21T18:28:09.059Z,39.27
2018-11-21T18:33:12.982Z,41.13
2018-11-21T18:35:38.127Z,39.73
2018-11-21T18:38:03.224Z,41.03
2018-11-21T18:40:29.793Z,39.73
2018-11-21T18:42:55.019Z,41.37
2018-11-21T18:45:23.536Z,41.07
2018-11-21T18:47:49.040Z,41.93
2018-11-21T18:50:15.635Z,42.47
2018-11-21T18:52:40.785Z,43.27
2018-11-21T18:55:07.953Z,42.60
2018-11-21T18:58:11.097Z,42.50
2018-11-21T19:00:55.938Z,40.27
2018-11-21T19:03:21.148Z,42.33
2018-11-21T19:05:58.945Z,41.43
2018-11-21T19:08:24.660Z,41.07
2018-11-21T19:10:50.302Z,41.93
2018-11-21T19:13:15.374Z,41.97
2018-11-21T19:15:40.506Z,37.40
2018-11-21T19:18:05.845Z,40.33
2018-11-21T19:20:31.060Z,38.33
2018-11-21T19:22:56.175Z,43.37
2018-11-21T19:25:21.359Z,39.50
2018-11-21T19:27:46.534Z,38.00
2018-11-21T19:30:13.541Z,42.70
2018-11-21T19:32:58.400Z,40.53
2018-11-21T19:35:41.754Z,42.67
2018-11-21T19:38:07.072Z,38.93
2018-11-21T19:40:32.315Z,42.23
2018-11-21T19:42:57.470Z,39.60
2018-11-21T19:45:22.657Z,41.00
2018-11-21T19:47:48.311Z,41.93
2018-11-21T19:50:14.793Z,39.97
2018-11-21T19:52:40.896Z,43.37
2018-11-21T19:57:44.424Z,40.40
2018-11-21T20:00:31.902Z,38.77
2018-11-21T20:02:57.051Z,43.23
2018-11-21T20:05:22.380Z,39.37
2018-11-21T20:07:47.466Z,40.70
2018-11-21T20:10:13.723Z,39.67
2018-11-21T20:12:40.051Z,37.80
2018-11-21T20:15:04.638Z,38.67
2018-11-21T20:17:29.871Z,37.60
2018-11-21T20:19:55.032Z,38.37
2018-11-21T20:22:20.246Z,39.30
2018-11-21T20:24:45.394Z,41.30
2018-11-21T20:27:10.574Z,39.87
2018-11-21T20:29:35.680Z,43.33
2018-11-21T20:32:00.849Z,37.90
2018-11-21T20:34:25.970Z,40.63
2018-11-21T20:36:51.160Z,45.57
2018-11-21T20:41:52.995Z,41.20
2018-11-21T20:44:18.139Z,43.27
2018-11-21T20:46:43.322Z,40.03
2018-11-21T20:49:11.503Z,41.70
2018-11-21T20:51:34.051Z,42.93
2018-11-21T20:56:36.007Z,43.47
2018-11-21T20:59:01.158Z,41.67
2018-11-21T21:01:26.260Z,44.63
2018-11-21T21:03:51.412Z,41.70
2018-11-21T21:06:16.529Z,41.33
2018-11-21T21:08:41.711Z,39.03
2018-11-21T21:11:06.996Z,43.33
2018-11-21T21:13:32.654Z,41.73
2018-11-21T21:15:57.722Z,41.47
2018-11-21T21:18:22.817Z,38.57
2018-11-21T21:20:47.934Z,42.60
2018-11-21T21:23:13.131Z,39.70
2018-11-21T21:25:38.238Z,42.60
2018-11-21T21:28:03.350Z,35.83
2018-11-21T21:30:29.968Z,39.33
2018-11-21T21:32:55.068Z,39.57
2018-11-21T21:35:20.813Z,39.73
2018-11-21T21:37:45.943Z,38.20
2018-11-21T21:40:13.066Z,36.53
2018-11-21T21:42:38.538Z,39.20
2018-11-21T21:45:03.668Z,36.90
2018-11-21T21:47:47.746Z,41.27
2018-11-21T21:50:13.745Z,38.43
2018-11-21T21:52:38.846Z,39.07
2018-11-21T21:55:04.112Z,38.40
2018-11-21T21:57:29.390Z,38.87
2018-11-21T21:59:54.502Z,35.93
2018-11-21T22:02:19.589Z,36.87
2018-11-21T22:04:44.707Z,37.63
2018-11-21T22:07:09.786Z,34.47
2018-11-21T22:09:34.915Z,36.33
2018-11-21T22:12:00.008Z,35.30
2018-11-21T22:14:25.113Z,37.00
2018-11-21T22:16:50.210Z,37.40
2018-11-21T22:19:15.263Z,36.70
2018-11-21T22:21:40.386Z,33.13
2018-11-21T22:24:05.466Z,34.00
2018-11-21T22:26:30.554Z,35.13
2018-11-21T22:28:55.615Z,35.53
2018-11-21T22:31:20.713Z,34.67
2018-11-21T22:33:45.794Z,37.77
2018-11-21T22:36:29.870Z,36.33
2018-11-21T22:38:54.958Z,34.83
2018-11-21T22:41:20.044Z,36.03
2018-11-21T22:46:24.291Z,32.60
2018-11-21T22:48:49.398Z,37.37
2018-11-21T22:51:14.475Z,33.90
2018-11-21T22:53:39.601Z,34.03
2018-11-21T22:56:04.691Z,35.27
2018-11-21T22:58:48.777Z,34.23
2018-11-21T23:01:14.175Z,35.13
2018-11-21T23:03:39.287Z,37.07
2018-11-21T23:06:04.388Z,36.83
2018-11-21T23:08:29.484Z,35.47
2018-11-21T23:10:54.577Z,33.77
2018-11-21T23:13:19.730Z,35.50
2018-11-21T23:15:44.797Z,34.07
2018-11-21T23:18:09.980Z,35.47
2018-11-21T23:20:35.084Z,36.27
2018-11-21T23:23:19.093Z,37.13
2018-11-21T23:25:44.194Z,34.43
2018-11-21T23:28:09.269Z,37.03
2018-11-21T23:30:53.360Z,36.77
2018-11-21T23:33:18.433Z,35.83
2018-11-21T23:35:43.615Z,42.23
2018-11-21T23:38:08.788Z,39.73
2018-11-21T23:43:29.662Z,38.17
2018-11-21T23:45:54.775Z,38.80
2018-11-21T23:48:19.899Z,36.97
2018-11-21T23:50:44.979Z,41.37
2018-11-21T23:53:10.077Z,39.67
2018-11-21T23:55:35.206Z,38.20
2018-11-21T23:58:00.316Z,36.77
